This is the latest recevied weather packets stored in our database for station/object SP1BMW-13. If no packets are shown the sender has not sent any weather packets the latest 10 day(s).
| Time | Temp. | Humidity | Pressure | Rain* | Wind** | Luminosity | Snow |
|---|---|---|---|---|---|---|---|
| 1787849836 | 24.44° C | 39% | 1017.4 hPa | 0 mm | 0.45 m/s, 93° | 58 W/m² | - |
| 1787849776 | 24.44° C | 39% | 1017.3 hPa | 0 mm | 0.45 m/s, 84° | 60 W/m² | - |
| 1787849716 | 24.44° C | 39% | 1017.4 hPa | 0 mm | 0 m/s | 60 W/m² | - |
| 1787849656 | 24.44° C | 39% | 1017.5 hPa | 0 mm | 0.45 m/s, 171° | 60 W/m² | - |
| 1787849596 | 24.44° C | 39% | 1017.2 hPa | 0 mm | 0.45 m/s, 290° | 60 W/m² | - |
| 1787849536 | 24.44° C | 38% | 1017.6 hPa | 0 mm | 1.34 m/s, 51° | 60 W/m² | - |
| 1787849476 | 24.44° C | 39% | 1017.5 hPa | 0 mm | 0.45 m/s, 91° | 61 W/m² | - |
| 1787849416 | 25° C | 38% | 1017.2 hPa | 0 mm | 1.34 m/s, 66° | 66 W/m² | - |
| 1787849356 | 25° C | 40% | 1017.4 hPa | 0 mm | 0 m/s | 72 W/m² | - |
| 1787849296 | 25° C | 39% | 1017.4 hPa | 0 mm | 0 m/s | 77 W/m² | - |
| 1787849236 | 25° C | 38% | 1017.4 hPa | 0 mm | 0.89 m/s, 19° | 78 W/m² | - |
| 1787849176 | 25° C | 38% | 1017.4 hPa | 0 mm | 0.89 m/s, 135° | 81 W/m² | - |
| 1787849116 | 25° C | 38% | 1017.5 hPa | 0 mm | 0.89 m/s, 30° | 79 W/m² | - |
| 1787849056 | 25° C | 39% | 1017.5 hPa | 0 mm | 0.45 m/s, 35° | 74 W/m² | - |
| 1787848996 | 25° C | 39% | 1017.5 hPa | 0 mm | 0.89 m/s, 70° | 76 W/m² | - |
| 1787848936 | 25° C | 38% | 1017.3 hPa | 0 mm | 0.45 m/s, 67° | 83 W/m² | - |
| 1787848876 | 25° C | 37% | 1017.4 hPa | 0 mm | 2.68 m/s, 35° | 86 W/m² | - |
| 1787848816 | 25° C | 39% | 1017.6 hPa | 0 mm | 0.45 m/s, 90° | 86 W/m² | - |
| 1787848756 | 25° C | 38% | 1017.3 hPa | 0 mm | 0 m/s | 83 W/m² | - |
| 1787848696 | 25° C | 38% | 1017.4 hPa | 0 mm | 1.34 m/s, 50° | 89 W/m² | - |
| 1787848636 | 25° C | 37% | 1017.5 hPa | 0 mm | 1.34 m/s, 36° | 93 W/m² | - |
| 1787848576 | 25° C | 37% | 1017.5 hPa | 0 mm | 0.45 m/s, 19° | 99 W/m² | - |
| 1787848516 | 25° C | 38% | 1017.3 hPa | 0 mm | 1.79 m/s, 160° | 100 W/m² | - |
| 1787848456 | 25° C | 38% | 1017.4 hPa | 0 mm | 0.45 m/s, 67° | 95 W/m² | - |
| 1787848396 | 25.56° C | 39% | 1017.4 hPa | 0 mm | 0.45 m/s, 57° | 101 W/m² | - |
* Rain latest hour (hover to see other rain measurements)
** Current wind speed in m/s (hover to see current wind gust speed)